Sheep Ranch, California
Current Conditions -  °F | °C
As of 10:55 AM on Thursday 23 Oct 2014 (Local Time) from KO22 Reporting Station
Clear Clear  
Wind Chill: 70°   Ceiling: Unl
Heat Index: 70°   Visibility: 10mi
Dew Point: 37°   Wind: 0mph
Humidity: 31%   Direction: NA
Pressure: 30.08"   Gusts: NA
Location:  38.21°N, 120.46°W
Report Text: KO22 231755Z AUTO 00000KT 10SM CLR 21/03 A3008 RMK AO1
Loading
Personal Weather Stations






























Interactive Weather Map
Tropical Storm Tracking
New forecast layout! Learn more

10-Day Weather Forecast

Advertisements
Track Severe Weather on mobile